createdAt,value
2019-06-10T00:03:02.409Z,7.37
2019-06-10T00:13:07.336Z,18.33
2019-06-10T00:23:12.491Z,8.50
2019-06-10T00:33:16.896Z,14.60
2019-06-10T00:43:21.445Z,10.87
2019-06-10T00:53:24.982Z,15.10
2019-06-10T01:03:31.149Z,13.67
2019-06-10T01:13:34.037Z,12.33
2019-06-10T01:23:38.199Z,12.73
2019-06-10T01:33:41.348Z,13.07
2019-06-10T01:43:43.927Z,15.33
2019-06-10T01:53:51.009Z,12.97
2019-06-10T02:03:54.159Z,25.07
2019-06-10T02:13:57.469Z,14.40
2019-06-10T02:24:01.024Z,17.07
2019-06-10T02:34:05.117Z,14.67
2019-06-10T02:44:08.767Z,14.73
2019-06-10T02:54:14.056Z,14.97
2019-06-10T03:04:18.364Z,16.27
2019-06-10T03:14:25.276Z,17.03
2019-06-10T03:24:28.528Z,14.63
2019-06-10T03:34:40.794Z,13.73
2019-06-10T03:44:38.070Z,16.63
2019-06-10T03:54:43.281Z,14.93
2019-06-10T04:04:46.753Z,14.77
2019-06-10T04:14:52.078Z,12.53
2019-06-10T04:24:54.693Z,10.23
2019-06-10T04:34:57.882Z,11.73
2019-06-10T04:45:02.942Z,17.97
2019-06-10T04:55:06.626Z,12.00
2019-06-10T05:05:13.137Z,22.30
2019-06-10T05:15:19.527Z,6.63
2019-06-10T05:25:23.658Z,3.97
2019-06-10T05:35:29.930Z,6.20
2019-06-10T05:45:35.102Z,6.47
2019-06-10T05:55:39.038Z,5.30
2019-06-10T06:05:45.232Z,6.27
2019-06-10T06:15:48.433Z,6.97
2019-06-10T06:26:03.895Z,4.83
2019-06-10T06:36:07.523Z,3.90
2019-06-10T06:46:13.584Z,3.90
2019-06-10T06:56:16.185Z,8.60
2019-06-10T07:06:22.906Z,15.63
2019-06-10T07:16:25.674Z,4.70
2019-06-10T07:26:29.719Z,3.10
2019-06-10T07:36:34.452Z,4.10
2019-06-10T07:46:39.732Z,3.67
2019-06-10T07:56:50.414Z,4.67
2019-06-10T08:06:50.690Z,4.43
2019-06-10T08:16:54.230Z,4.83
2019-06-10T08:27:02.544Z,5.57
2019-06-10T08:37:05.769Z,3.87
2019-06-10T08:47:09.253Z,3.23
2019-06-10T08:57:12.953Z,3.40
2019-06-10T09:07:16.519Z,3.50
2019-06-10T09:17:23.022Z,3.37
2019-06-10T09:27:27.061Z,6.13
2019-06-10T09:37:32.719Z,5.90
2019-06-10T09:47:37.257Z,11.33
2019-06-10T09:57:43.361Z,6.93
2019-06-10T10:07:49.909Z,7.67
2019-06-10T10:17:56.203Z,8.70
2019-06-10T10:27:57.749Z,6.27
2019-06-10T10:38:03.736Z,4.77
2019-06-10T10:48:09.953Z,4.57
2019-06-10T10:58:13.335Z,2.90
2019-06-10T11:08:15.932Z,3.33
2019-06-10T11:18:19.363Z,4.03
2019-06-10T11:28:22.842Z,4.90
2019-06-10T11:38:25.898Z,3.50
2019-06-10T11:48:32.681Z,3.10
2019-06-10T11:58:35.158Z,5.03
2019-06-10T12:08:38.873Z,4.80
2019-06-10T12:18:42.592Z,4.23
2019-06-10T12:28:46.826Z,4.60
2019-06-10T12:38:49.396Z,6.13
2019-06-10T12:48:54.020Z,4.00
2019-06-10T12:58:58.066Z,3.57
2019-06-10T13:09:04.336Z,4.13
2019-06-10T13:19:08.054Z,3.67
2019-06-10T13:29:16.904Z,3.50
2019-06-10T13:39:17.019Z,3.63
2019-06-10T13:49:22.782Z,5.40
2019-06-10T13:59:29.530Z,3.60
2019-06-10T14:09:33.118Z,7.87
2019-06-10T14:19:37.144Z,5.07
2019-06-10T14:29:42.047Z,4.30
2019-06-10T14:39:45.876Z,5.27
2019-06-10T14:49:49.481Z,3.53
2019-06-10T14:59:56.153Z,5.93
2019-06-10T15:09:59.512Z,8.73
2019-06-10T15:20:03.806Z,4.30
2019-06-10T15:30:20.754Z,3.93
2019-06-10T15:40:18.280Z,18.37
2019-06-10T15:50:23.800Z,12.60
2019-06-10T16:00:29.446Z,6.73
2019-06-10T16:10:32.848Z,7.23
2019-06-10T16:20:36.352Z,5.33
2019-06-10T16:30:42.848Z,8.60
2019-06-10T16:40:45.574Z,4.73
2019-06-10T16:50:54.008Z,8.80
2019-06-10T17:00:57.109Z,6.93
2019-06-10T17:11:03.060Z,6.33
2019-06-10T17:21:05.122Z,9.17
2019-06-10T17:31:07.704Z,8.80
2019-06-10T17:41:13.298Z,8.07
2019-06-10T17:51:17.270Z,8.93
2019-06-10T18:01:22.089Z,10.20
2019-06-10T18:11:26.450Z,7.07
2019-06-10T18:21:30.422Z,10.60
2019-06-10T18:31:37.023Z,9.70
2019-06-10T18:41:40.272Z,7.80
2019-06-10T18:51:44.335Z,8.80
2019-06-10T19:01:52.706Z,9.90
2019-06-10T19:12:02.842Z,9.47
2019-06-10T19:22:09.378Z,7.33
2019-06-10T19:32:12.763Z,6.70
2019-06-10T19:42:15.340Z,6.43
2019-06-10T19:52:18.770Z,14.67
2019-06-10T20:02:24.545Z,20.20
2019-06-10T20:12:29.271Z,13.50
2019-06-10T20:22:34.246Z,11.10
2019-06-10T20:32:45.499Z,11.03
2019-06-10T20:42:46.747Z,8.27
2019-06-10T20:52:52.292Z,6.50
2019-06-10T21:02:55.592Z,8.67
2019-06-10T21:12:58.164Z,4.23
2019-06-10T21:23:04.830Z,2.70
2019-06-10T21:33:07.386Z,3.43
2019-06-10T21:43:12.871Z,4.87
2019-06-10T21:53:16.195Z,6.17
2019-06-10T22:03:23.196Z,6.80
2019-06-10T22:13:25.546Z,6.47
2019-06-10T22:23:29.898Z,4.57
2019-06-10T22:33:33.947Z,4.97
2019-06-10T22:43:36.847Z,8.97
2019-06-10T22:53:42.485Z,6.67
2019-06-10T23:03:45.311Z,5.67
2019-06-10T23:13:53.365Z,10.30
2019-06-10T23:23:57.053Z,5.60
2019-06-10T23:34:02.186Z,8.70
2019-06-10T23:44:04.848Z,4.50
2019-06-10T23:54:08.957Z,6.00
